Cocos Island, Australian Islands

9:34 AM CCT on July 24, 2016 (GMT +0630)
Cocos (Keeling) Island International | | Change Station

Elev 10 ft 12.19 °S, 96.83 °E | Updated 4 minutes ago

Rain
Rain
77 °F
Feels Like 77 °F
N
17
Wind Variable Wind from SE

Today
High -- | Low -- °F
--% Chance of Precip.
Yesterday
High -- | Low -- °F
Precip. -- in
Pressure 29.86 in
Visibility -9999.0 miles
Clouds Scattered Clouds 800 ft
Mostly Cloudy 5800 ft
Overcast 7700 ft
Dew Point 75 °F
Humidity 94%
Rainfall 0.00 in
Snow Depth Not available.
6:23 AM 5:55 PM
Waning Gibbous, 80% visible
SPECI YPCC 240300Z AUTO 14015KT 3300 RA SCT008 BKN058 OVC077 25/24 Q1011
Pressure 29.86 in
Visibility -9999.0 miles
Clouds Scattered Clouds 800 ft
Mostly Cloudy 5800 ft
Overcast 7700 ft
Dew Point 75 °F
Humidity 94%
Rainfall 0.00 in
Snow Depth Not available.
6:23 AM 5:55 PM
Waning Gibbous, 80% visible
SPECI YPCC 240300Z AUTO 14015KT 3300 RA SCT008 BKN058 OVC077 25/24 Q1011

10-Day Weather Forecast

No radar image for this location.
×

Almanac

Astronomy

Jul. 24, 2016 Rise Set
Actual Time
Civil Twilight
Nautical Twilight
Astronomical Twilight
Moon
Length of Visible Light
Length of Day
Tomorrow will be .
, % of the Moon is Illuminated

Today's Extremes

Country Highs Country Lows

Community

WunderPhotos

Upload Photos

1,927,016 photos uploaded!

WunderBlog® & News

Nearby

Air Quality

  Air Quality AQ Index Pollutant
Not available.

Snow Depth

Station Depth Elevation

Earthquake Activity

City Distance Mag. Time & Date
Minimum magnitude displayed is 2.5.

Coastal Water Temperatures

Place Temperature

Stations

Nearby Weather Stations

Station Location Temp. Windchill Dew Point Humidity Wind Precip. Elev Updated Type